Time;durP1;ratioP1;P1;durP2;ratioP2;P2;SDS_P1;SDS_P2;PMS_P1;PMS_P2;Temp;Humidity;BMP_temperature;BMP_pressure;BME280_temperature;BME280_humidity;BME280_pressure;Samples;Min_cycle;Max_cycle;Signal;HPM_P1;HPM_P2
2022/02/02 00:01:14;;;;;;;7.68;3.10;;;4.50;99.90;;;;;;5029808;28;20024;-73
2022/02/02 00:03:42;;;;;;;8.52;3.55;;;4.40;99.90;;;;;;5030049;28;20029;-72
2022/02/02 00:06:18;;;;;;;11.05;3.60;;;4.30;99.90;;;;;;5030200;28;20030;-73
2022/02/02 00:08:56;;;;;;;7.43;3.40;;;4.30;99.90;;;;;;5028716;28;20120;-72
2022/02/02 00:16:24;;;;;;;10.75;3.97;;;4.30;99.90;;;;;;5030443;28;20029;-73
2022/02/02 00:18:58;;;;;;;12.63;4.40;;;4.40;99.90;;;;;;5029144;28;20113;-73
2022/02/02 00:21:28;;;;;;;13.15;4.60;;;4.50;99.90;;;;;;5032966;28;20029;-73
2022/02/02 00:24:03;;;;;;;12.70;5.32;;;4.40;99.90;;;;;;5033523;28;20452;-74
2022/02/02 00:26:33;;;;;;;10.88;5.07;;;4.40;99.90;;;;;;5033213;28;20083;-75
2022/02/02 00:29:11;;;;;;;13.40;5.20;;;4.40;99.90;;;;;;5033342;28;20027;-74
2022/02/02 00:31:45;;;;;;;12.30;5.05;;;4.60;99.90;;;;;;5031799;28;20018;-73
2022/02/02 00:34:16;;;;;;;13.95;5.43;;;4.50;99.90;;;;;;5033135;28;20471;-74
2022/02/02 00:36:54;;;;;;;15.68;5.15;;;4.40;99.90;;;;;;5033559;28;20028;-74
2022/02/02 00:39:20;;;;;;;12.05;5.47;;;4.60;99.90;;;;;;5032137;28;20116;-74
2022/02/02 00:41:45;;;;;;;24.70;6.10;;;4.60;99.90;;;;;;5032947;28;20534;-74
2022/02/02 00:44:14;;;;;;;11.27;5.07;;;4.60;99.90;;;;;;5032948;28;20025;-75
2022/02/02 00:46:40;;;;;;;12.32;5.30;;;4.90;99.90;;;;;;5032973;28;20360;-74
2022/02/02 00:49:06;;;;;;;13.68;5.93;;;4.90;99.90;;;;;;5033405;28;20151;-74
2022/02/02 00:51:45;;;;;;;16.05;5.45;;;4.80;99.90;;;;;;5032355;28;20014;-74
2022/02/02 00:54:23;;;;;;;13.93;5.90;;;4.90;99.90;;;;;;5032021;28;20030;-76
2022/02/02 00:56:49;;;;;;;13.18;5.90;;;5.00;99.90;;;;;;5032102;28;20060;-73
2022/02/02 00:59:16;;;;;;;18.60;6.30;;;5.10;99.90;;;;;;5033394;28;20018;-74
2022/02/02 01:01:41;;;;;;;19.00;6.25;;;5.10;99.90;;;;;;5031387;28;20017;-74
2022/02/02 01:04:07;;;;;;;13.38;5.63;;;5.10;99.90;;;;;;5032771;28;20049;-74
2022/02/02 01:06:38;;;;;;;15.57;6.30;;;5.00;99.90;;;;;;5032707;28;20087;-74
2022/02/02 01:09:14;;;;;;;18.90;6.53;;;5.20;99.90;;;;;;5032314;28;20018;-74
2022/02/02 01:27:48;;;;;;;12.40;4.55;;;4.80;99.90;;;;;;5032648;28;20040;-73
2022/02/02 01:30:07;;;;;;;11.45;4.55;;;4.80;99.90;;;;;;5032421;28;20421;-74
2022/02/02 01:32:33;;;;;;;10.55;4.00;;;4.70;99.90;;;;;;5030994;28;20878;-73
2022/02/02 01:34:59;;;;;;;12.50;4.00;;;4.60;99.90;;;;;;5032192;28;20108;-72
2022/02/02 01:37:26;;;;;;;8.55;3.42;;;4.60;99.90;;;;;;5031604;28;20403;-72
2022/02/02 01:39:59;;;;;;;9.85;3.63;;;4.60;99.90;;;;;;5032061;28;20117;-72
2022/02/02 01:42:29;;;;;;;11.80;3.38;;;4.70;99.90;;;;;;5029781;28;20091;-73
2022/02/02 01:45:07;;;;;;;10.73;3.70;;;4.70;99.90;;;;;;5030975;28;20463;-73
2022/02/02 01:47:42;;;;;;;12.68;4.05;;;4.60;99.90;;;;;;5030796;28;20071;-72
2022/02/02 01:50:19;;;;;;;9.20;3.10;;;4.60;99.90;;;;;;5031767;28;20015;-73
2022/02/02 01:55:17;;;;;;;13.30;3.72;;;4.50;99.90;;;;;;5031964;28;20042;-73
2022/02/02 01:58:03;;;;;;;15.23;4.18;;;4.30;99.90;;;;;;5031869;28;20022;-73
2022/02/02 02:00:29;;;;;;;10.38;3.72;;;4.30;99.90;;;;;;5030458;28;20112;-73
2022/02/02 02:02:54;;;;;;;13.00;3.83;;;4.20;99.90;;;;;;5031063;28;20117;-73
2022/02/02 02:05:20;;;;;;;10.07;3.70;;;4.20;99.90;;;;;;5029749;28;20033;-73
2022/02/02 02:07:47;;;;;;;10.65;3.85;;;4.10;99.90;;;;;;5031792;28;20473;-73
2022/02/02 02:10:13;;;;;;;10.68;3.55;;;4.00;99.90;;;;;;5031554;28;20470;-73
2022/02/02 02:12:50;;;;;;;9.10;3.15;;;4.10;99.90;;;;;;5032238;28;20022;-72
2022/02/02 02:15:17;;;;;;;9.52;3.00;;;4.10;99.90;;;;;;5031376;28;20549;-73
2022/02/02 02:17:43;;;;;;;11.15;3.60;;;4.20;99.90;;;;;;5031581;28;20080;-73
2022/02/02 02:20:10;;;;;;;11.18;3.10;;;4.00;99.90;;;;;;5031340;28;20482;-72
2022/02/02 02:22:38;;;;;;;9.82;3.15;;;4.00;99.90;;;;;;5031266;28;20032;-73
2022/02/02 02:25:05;;;;;;;12.60;3.45;;;4.10;99.90;;;;;;5030978;28;20108;-74
2022/02/02 02:27:30;;;;;;;12.77;3.72;;;4.10;99.90;;;;;;5031231;28;20077;-75
2022/02/02 02:57:13;;;;;;;12.65;3.70;;;3.90;99.90;;;;;;5031468;28;20498;-74
2022/02/02 02:59:47;;;;;;;9.93;3.47;;;3.90;99.90;;;;;;5031171;28;20431;-73
2022/02/02 03:03:11;;;;;;;13.20;3.97;;;3.80;99.90;;;;;;5030176;28;20356;-73
2022/02/02 03:30:05;;;;;;;15.05;4.75;;;4.10;99.90;;;;;;5031162;28;20037;-73
2022/02/02 03:33:01;;;;;;;13.85;5.00;;;4.10;99.90;;;;;;5030408;28;20091;-73
2022/02/02 03:49:36;;;;;;;18.95;6.22;;;4.60;99.90;;;;;;5029538;28;20075;-73
2022/02/02 03:52:30;;;;;;;15.95;5.63;;;4.50;99.90;;;;;;5028422;28;20108;-74
2022/02/02 03:55:05;;;;;;;18.02;5.65;;;4.60;99.90;;;;;;5032197;28;20056;-74
2022/02/02 04:00:41;;;;;;;20.90;6.00;;;4.60;99.90;;;;;;4989696;28;20534;-74
2022/02/02 04:03:35;;;;;;;18.40;6.03;;;4.60;99.90;;;;;;5027530;28;20037;-73
2022/02/02 04:06:07;;;;;;;22.00;6.10;;;4.80;99.90;;;;;;5029778;28;20400;-73
2022/02/02 04:08:36;;;;;;;22.10;5.60;;;4.90;99.90;;;;;;5031664;28;20045;-74
2022/02/02 04:11:10;;;;;;;19.38;6.30;;;4.80;99.90;;;;;;5032265;28;20017;-74
2022/02/02 04:51:29;;;;;;;20.67;6.03;;;4.50;99.90;;;;;;5032158;28;20107;-72
2022/02/02 04:54:21;;;;;;;17.02;5.70;;;4.50;99.90;;;;;;5032903;28;20504;-73
2022/02/02 04:59:44;;;;;;;17.58;6.18;;;4.50;99.90;;;;;;5032728;28;20516;-73
2022/02/02 05:07:17;;;;;;;19.88;6.82;;;4.30;99.90;;;;;;5031616;28;20093;-74
2022/02/02 05:15:41;;;;;;;20.63;6.60;;;4.50;99.90;;;;;;5032486;28;20032;-73
2022/02/02 05:25:59;;;;;;;24.13;6.63;;;4.70;99.90;;;;;;5032748;28;20032;-73
2022/02/02 05:29:22;;;;;;;22.33;6.95;;;4.80;99.90;;;;;;5032862;28;20379;-73
2022/02/02 05:49:58;;;;;;;17.40;7.00;;;5.00;99.90;;;;;;5031974;28;20080;-73
2022/02/02 05:52:24;;;;;;;19.03;7.03;;;5.00;99.90;;;;;;5028875;28;20021;-73
2022/02/02 05:54:50;;;;;;;16.75;5.90;;;5.00;99.90;;;;;;5031876;28;20487;-75
2022/02/02 05:57:16;;;;;;;18.95;7.07;;;5.10;99.90;;;;;;5031752;28;20045;-74
2022/02/02 05:59:43;;;;;;;16.90;5.88;;;5.00;99.90;;;;;;5032377;28;20017;-74
2022/02/02 06:02:14;;;;;;;18.75;6.25;;;5.10;99.90;;;;;;5027887;28;20033;-74
2022/02/02 06:04:47;;;;;;;17.48;5.72;;;5.00;99.90;;;;;;5029311;28;20196;-74
2022/02/02 06:07:14;;;;;;;16.00;4.97;;;5.10;99.90;;;;;;5029523;28;20028;-75
2022/02/02 06:09:42;;;;;;;13.65;5.13;;;5.00;99.90;;;;;;5031187;28;20017;-75
2022/02/02 06:12:09;;;;;;;21.10;5.65;;;5.00;99.90;;;;;;5029202;28;20045;-75
2022/02/02 06:14:38;;;;;;;22.35;6.30;;;4.80;99.90;;;;;;5030169;28;20406;-75
2022/02/02 06:17:07;;;;;;;16.75;5.93;;;4.30;99.90;;;;;;5029392;28;20025;-75
2022/02/02 06:19:32;;;;;;;17.00;5.63;;;3.80;99.90;;;;;;5029819;28;20395;-75
2022/02/02 06:22:07;;;;;;;20.33;6.68;;;3.60;99.90;;;;;;5031018;28;20021;-75
2022/02/02 06:24:33;;;;;;;21.58;6.88;;;3.40;99.90;;;;;;5031341;28;20098;-75
2022/02/02 06:27:06;;;;;;;22.77;7.30;;;3.50;99.90;;;;;;5029582;28;20471;-75
2022/02/02 06:29:40;;;;;;;21.45;7.50;;;3.40;99.90;;;;;;5031255;28;20490;-75
2022/02/02 06:32:08;;;;;;;18.23;5.32;;;3.40;99.90;;;;;;5032379;28;20041;-75
2022/02/02 06:34:36;;;;;;;17.80;6.75;;;3.50;99.90;;;;;;5031505;28;20017;-75
2022/02/02 06:37:02;;;;;;;14.32;5.07;;;3.60;99.90;;;;;;5045647;28;20018;-75
2022/02/02 06:39:27;;;;;;;16.23;5.93;;;3.70;99.90;;;;;;5033002;28;20028;-74
2022/02/02 06:41:56;;;;;;;15.52;5.05;;;3.70;99.90;;;;;;5039859;28;20028;-75
2022/02/02 06:44:24;;;;;;;16.45;5.05;;;3.70;99.90;;;;;;5031915;28;20045;-74
2022/02/02 06:46:51;;;;;;;15.18;5.00;;;3.70;99.90;;;;;;5031917;28;20017;-74
2022/02/02 06:49:18;;;;;;;12.93;5.07;;;3.90;99.90;;;;;;5030725;28;20036;-75
2022/02/02 06:52:02;;;;;;;19.75;6.32;;;3.90;99.90;;;;;;5036695;28;20026;-75
2022/02/02 06:55:10;;;;;;;15.45;5.00;;;3.90;99.90;;;;;;5030973;28;20017;-75
2022/02/02 06:57:52;;;;;;;17.60;5.28;;;4.00;99.90;;;;;;4973716;28;20034;-75
2022/02/02 07:03:03;;;;;;;15.70;5.80;;;4.00;99.90;;;;;;5031815;28;20546;-77
2022/02/02 07:05:42;;;;;;;13.13;5.15;;;3.90;99.90;;;;;;5034371;28;20433;-76
2022/02/02 07:13:55;;;;;;;21.63;6.90;;;4.00;99.90;;;;;;5028409;28;20108;-76
2022/02/02 07:19:22;;;;;;;13.43;5.18;;;4.10;99.90;;;;;;5040250;28;20017;-76
2022/02/02 07:27:25;;;;;;;15.68;6.43;;;4.30;99.90;;;;;;5031746;28;20028;-75
2022/02/02 07:30:47;;;;;;;17.85;6.10;;;4.20;99.90;;;;;;5023513;28;20025;-75
2022/02/02 07:32:51;;;;;;;16.80;5.30;;;4.40;99.90;;;;;;5027306;28;20540;-75
2022/02/02 07:37:55;;;;;;;21.95;5.00;;;4.40;99.90;;;;;;5034929;28;20465;-75
2022/02/02 07:40:21;;;;;;;16.25;5.93;;;4.40;99.90;;;;;;5040603;28;20390;-75
2022/02/02 07:42:52;;;;;;;11.48;4.75;;;4.40;99.90;;;;;;5036727;28;20024;-75
2022/02/02 07:45:21;;;;;;;13.77;4.40;;;4.60;99.90;;;;;;5036822;28;20425;-75
2022/02/02 07:47:50;;;;;;;14.07;4.72;;;4.50;99.90;;;;;;5037406;28;20052;-75
2022/02/02 07:50:16;;;;;;;20.95;5.35;;;4.50;99.90;;;;;;5027099;28;20391;-75
2022/02/02 07:52:46;;;;;;;15.88;4.72;;;4.50;99.90;;;;;;5033811;28;20029;-75
2022/02/02 07:55:13;;;;;;;13.18;5.30;;;4.50;99.90;;;;;;5035174;28;20016;-75
2022/02/02 07:57:43;;;;;;;13.30;4.38;;;4.50;99.90;;;;;;5032148;28;20095;-75
2022/02/02 08:00:17;;;;;;;12.55;4.25;;;4.60;99.90;;;;;;5030529;28;20129;-75
2022/02/02 08:05:23;;;;;;;13.30;4.00;;;4.50;99.90;;;;;;5033063;28;20017;-76
2022/02/02 08:08:16;;;;;;;14.98;4.53;;;4.70;99.90;;;;;;5033657;28;20035;-75
2022/02/02 08:10:37;;;;;;;14.90;4.78;;;4.70;99.90;;;;;;5029239;28;20033;-76
2022/02/02 08:13:10;;;;;;;12.60;4.75;;;4.60;99.90;;;;;;5029175;28;20426;-75
2022/02/02 08:15:36;;;;;;;15.10;5.35;;;4.60;99.90;;;;;;5034845;28;20425;-75
2022/02/02 08:18:02;;;;;;;15.40;4.63;;;4.60;99.90;;;;;;5033185;28;20021;-75
2022/02/02 08:20:28;;;;;;;14.70;4.50;;;4.70;99.90;;;;;;5024237;28;20042;-75
2022/02/02 08:22:54;;;;;;;12.20;3.95;;;4.70;99.90;;;;;;5029673;28;20073;-75
2022/02/02 08:25:28;;;;;;;12.63;4.30;;;4.70;99.90;;;;;;5024899;28;20503;-75
2022/02/02 08:28:03;;;;;;;15.43;4.63;;;4.70;99.90;;;;;;5030796;28;20043;-75
2022/02/02 08:30:30;;;;;;;14.20;4.53;;;4.70;99.90;;;;;;5022608;28;20029;-75
2022/02/02 08:32:57;;;;;;;14.10;4.75;;;4.70;99.90;;;;;;5033058;28;20084;-75
2022/02/02 08:35:30;;;;;;;12.88;5.22;;;4.80;99.90;;;;;;5021428;28;20028;-75
2022/02/02 08:38:12;;;;;;;14.13;4.53;;;4.80;99.90;;;;;;5027962;28;20076;-75
2022/02/02 08:41:26;;;;;;;11.45;4.20;;;4.70;99.90;;;;;;5027497;28;20030;-75
2022/02/02 08:43:36;;;;;;;10.77;4.18;;;4.80;99.90;;;;;;5020702;28;20044;-75
2022/02/02 08:46:07;;;;;;;14.32;5.20;;;4.80;99.90;;;;;;5034607;28;20036;-72
2022/02/02 08:48:33;;;;;;;16.15;6.40;;;4.80;99.90;;;;;;5040139;28;20116;-75
2022/02/02 08:51:04;;;;;;;15.70;7.13;;;4.90;99.90;;;;;;5019948;28;20026;-75
2022/02/02 08:56:34;;;;;;;11.65;4.93;;;4.90;99.90;;;;;;5025772;28;20468;-75
2022/02/02 08:59:08;;;;;;;13.57;4.93;;;5.00;99.90;;;;;;5033342;28;20121;-74
2022/02/02 09:01:36;;;;;;;15.15;4.40;;;5.00;99.90;;;;;;5020639;28;20037;-74
2022/02/02 09:06:45;;;;;;;19.55;7.45;;;5.10;99.90;;;;;;5027565;28;20033;-74
2022/02/02 09:09:17;;;;;;;13.32;6.25;;;5.10;99.90;;;;;;5022950;28;20025;-75
2022/02/02 09:20:19;;;;;;;20.42;7.45;;;5.40;99.90;;;;;;5043824;28;20033;-73
2022/02/02 09:25:40;;;;;;;15.50;5.78;;;5.40;99.90;;;;;;5027758;28;20037;-73
2022/02/02 09:33:52;;;;;;;18.45;6.47;;;5.30;99.90;;;;;;5033737;28;20163;-73
2022/02/02 09:36:22;;;;;;;19.35;5.47;;;5.30;99.90;;;;;;5031940;28;20021;-74
2022/02/02 09:38:49;;;;;;;21.70;6.30;;;5.30;99.90;;;;;;5032048;28;20024;-74
2022/02/02 09:41:30;;;;;;;19.92;5.82;;;5.40;99.90;;;;;;5033215;28;20029;-74
2022/02/02 09:44:00;;;;;;;16.85;5.40;;;5.40;99.90;;;;;;5019597;28;20024;-74
2022/02/02 09:46:32;;;;;;;19.70;5.65;;;5.50;99.90;;;;;;5023854;28;20100;-74
2022/02/02 09:49:03;;;;;;;17.52;4.97;;;5.50;99.90;;;;;;5030207;28;20056;-74
2022/02/02 09:52:14;;;;;;;18.35;5.80;;;5.50;99.90;;;;;;5021788;28;20060;-74
2022/02/02 09:54:25;;;;;;;18.27;5.00;;;5.60;99.90;;;;;;5014841;28;20092;-74
2022/02/02 10:02:29;;;;;;;11.15;3.60;;;5.00;99.90;;;;;;5031560;28;20030;-74
2022/02/02 10:05:08;;;;;;;10.18;3.17;;;4.90;99.90;;;;;;5031447;28;20032;-74
2022/02/02 10:15:22;;;;;;;9.85;3.30;;;4.80;99.90;;;;;;5047095;28;20025;-74
2022/02/02 10:18:06;;;;;;;9.27;2.97;;;4.80;99.90;;;;;;5032554;28;20021;-74
2022/02/02 10:20:32;;;;;;;8.10;2.97;;;4.70;99.90;;;;;;5021814;28;20026;-74
2022/02/02 10:23:00;;;;;;;10.73;2.90;;;4.60;99.90;;;;;;5026209;28;20084;-75
2022/02/02 10:25:30;;;;;;;12.00;2.95;;;4.60;99.90;;;;;;5024137;28;20025;-74
2022/02/02 10:28:07;;;;;;;10.00;3.67;;;4.70;99.90;;;;;;5015377;28;20057;-74
2022/02/02 10:30:33;;;;;;;8.10;3.47;;;4.90;99.90;;;;;;5023101;28;20494;-74
2022/02/02 10:32:59;;;;;;;8.77;2.63;;;5.10;99.90;;;;;;5019226;28;20029;-75
2022/02/02 10:35:40;;;;;;;9.57;3.10;;;5.20;99.90;;;;;;5032434;28;20083;-75
2022/02/02 10:38:21;;;;;;;9.65;3.13;;;5.30;99.90;;;;;;5019142;28;20033;-74
2022/02/02 10:43:36;;;;;;;11.55;3.33;;;5.60;99.90;;;;;;5021895;28;20041;-74
2022/02/02 10:46:35;;;;;;;7.65;2.90;;;5.80;99.90;;;;;;5025731;28;20022;-74
2022/02/02 10:50:05;;;;;;;10.70;3.08;;;5.90;99.90;;;;;;5024245;28;20033;-74
2022/02/02 10:52:09;;;;;;;10.63;3.28;;;6.00;99.90;;;;;;5021178;28;20036;-74
2022/02/02 10:57:17;;;;;;;13.45;3.65;;;6.10;99.90;;;;;;5042709;28;20083;-74
2022/02/02 11:08:13;;;;;;;9.95;3.40;;;5.90;99.90;;;;;;5041646;28;20090;-75
2022/02/02 11:10:39;;;;;;;13.23;3.90;;;6.00;99.90;;;;;;5030151;28;20021;-75
2022/02/02 11:13:11;;;;;;;10.65;3.22;;;6.00;99.90;;;;;;5029048;28;20035;-75
2022/02/02 11:15:50;;;;;;;11.05;3.67;;;6.00;99.90;;;;;;5024131;28;20105;-75
2022/02/02 11:18:21;;;;;;;14.23;3.83;;;6.00;99.90;;;;;;5031355;28;20056;-75
2022/02/02 11:20:48;;;;;;;11.10;3.72;;;6.00;99.90;;;;;;5031490;28;20025;-75
2022/02/02 11:23:13;;;;;;;10.27;2.90;;;6.00;99.90;;;;;;5027580;28;20025;-74
2022/02/02 11:25:49;;;;;;;8.88;2.92;;;6.00;99.90;;;;;;5031592;28;20032;-74
2022/02/02 11:28:30;;;;;;;11.35;3.92;;;6.00;99.90;;;;;;5031453;28;20064;-74
2022/02/02 11:31:25;;;;;;;9.02;3.53;;;6.00;99.90;;;;;;5023589;28;20028;-74
2022/02/02 11:33:57;;;;;;;12.00;3.40;;;6.10;99.90;;;;;;5020679;22;20133;-71
2022/02/02 11:36:40;;;;;;;10.23;3.38;;;6.20;99.90;;;;;;5017143;28;20533;-71
2022/02/02 11:39:09;;;;;;;11.73;3.40;;;6.20;99.90;;;;;;5016342;28;20029;-71
2022/02/02 11:42:11;;;;;;;10.65;3.13;;;6.30;99.90;;;;;;5023130;28;20437;-70
2022/02/02 11:44:42;;;;;;;7.93;2.80;;;6.30;99.90;;;;;;5011350;28;20096;-71
2022/02/02 11:49:53;;;;;;;10.40;3.10;;;6.30;99.90;;;;;;5004611;28;20030;-71
2022/02/02 11:52:38;;;;;;;;;;;6.30;99.90;;;;;;5003866;28;20399;-71
2022/02/02 11:55:26;;;;;;;9.35;2.85;;;6.40;99.90;;;;;;5000082;28;19905;-73
2022/02/02 12:00:51;;;;;;;11.23;3.55;;;6.40;99.90;;;;;;4998829;28;20026;-71
2022/02/02 12:03:53;;;;;;;8.10;2.55;;;6.40;99.90;;;;;;5007531;28;20021;-71
2022/02/02 12:18:56;;;;;;;6.80;2.75;;;6.40;99.90;;;;;;5005339;28;20019;-71
2022/02/02 12:47:08;;;;;;;9.18;3.00;;;7.10;99.90;;;;;;5001943;28;20036;-73
2022/02/02 13:00:11;;;;;;;10.65;3.03;;;7.10;99.90;;;;;;5004194;28;20467;-73
2022/02/02 13:02:39;;;;;;;8.82;2.92;;;7.00;99.90;;;;;;4992755;28;20028;-73
2022/02/02 13:05:07;;;;;;;8.55;2.58;;;7.00;99.90;;;;;;5003070;28;20057;-73
2022/02/02 13:07:34;;;;;;;9.52;2.60;;;7.00;99.90;;;;;;5006823;28;20091;-73
2022/02/02 13:10:08;;;;;;;9.98;2.95;;;6.90;99.90;;;;;;4996432;28;20026;-73
2022/02/02 13:12:36;;;;;;;11.80;2.90;;;6.80;99.90;;;;;;5004436;28;20177;-73
2022/02/02 13:23:26;;;;;;;9.75;3.30;;;6.70;99.90;;;;;;5010022;28;20018;-73
2022/02/02 13:25:57;;;;;;;10.80;2.80;;;6.80;99.90;;;;;;5005889;28;20022;-73
2022/02/02 13:28:49;;;;;;;8.60;2.85;;;6.80;99.90;;;;;;4999141;28;20028;-73
2022/02/02 13:31:58;;;;;;;9.48;2.78;;;6.90;99.90;;;;;;5005589;28;20104;-75
2022/02/02 13:35:00;;;;;;;8.73;2.63;;;7.00;99.90;;;;;;4990502;28;20058;-73
2022/02/02 13:37:45;;;;;;;7.20;2.33;;;7.10;99.90;;;;;;4973568;28;20033;-73
2022/02/02 14:31:26;;;;;;;9.52;2.33;;;7.00;99.90;;;;;;4983643;28;20538;-73
2022/02/02 14:33:57;;;;;;;5.75;2.50;;;7.00;99.90;;;;;;4982800;28;20037;-73
2022/02/02 14:36:28;;;;;;;7.60;2.40;;;7.00;99.90;;;;;;4983047;28;20018;-73
2022/02/02 14:41:29;;;;;;;5.70;2.15;;;6.90;99.90;;;;;;4983716;28;20026;-73
2022/02/02 14:44:39;;;;;;;6.38;2.25;;;6.90;99.90;;;;;;4983926;28;20053;-73
2022/02/02 14:47:03;;;;;;;7.63;2.38;;;6.90;99.90;;;;;;4978431;28;20170;-74
2022/02/02 14:52:53;;;;;;;8.43;2.60;;;6.80;99.90;;;;;;4984406;28;20113;-72
2022/02/02 14:55:37;;;;;;;6.82;2.17;;;6.70;99.90;;;;;;4984008;28;20065;-73
2022/02/02 15:23:48;;;;;;;6.15;3.08;;;6.40;99.90;;;;;;4983662;28;20069;-73
2022/02/02 15:25:40;;;;;;;8.73;3.03;;;6.40;99.90;;;;;;4983938;28;20463;-73
2022/02/02 15:27:54;;;;;;;8.48;3.13;;;6.40;99.90;;;;;;4981733;28;20493;-73
2022/02/02 15:32:55;;;;;;;8.88;2.90;;;6.30;99.90;;;;;;4982853;28;20789;-72
2022/02/02 15:35:22;;;;;;;8.93;2.55;;;6.30;99.90;;;;;;4982972;28;20102;-73
2022/02/02 15:40:14;;;;;;;9.70;2.97;;;6.30;99.90;;;;;;4983793;28;20022;-73
2022/02/02 15:42:50;;;;;;;6.97;2.83;;;6.40;99.90;;;;;;4984305;28;20534;-73
2022/02/02 15:57:42;;;;;;;8.55;2.53;;;5.70;99.90;;;;;;4988946;28;20056;-73
2022/02/02 15:59:06;;;;;;;8.40;2.78;;;5.60;99.90;;;;;;4979769;28;20073;-73
2022/02/02 16:04:22;;;;;;;9.70;3.17;;;5.30;99.90;;;;;;4987586;28;20458;-73
2022/02/02 16:06:49;;;;;;;10.57;3.47;;;5.10;99.90;;;;;;4985598;28;20419;-73
2022/02/02 16:09:23;;;;;;;7.90;2.97;;;5.00;99.90;;;;;;4986055;28;20033;-73
2022/02/02 16:12:05;;;;;;;9.80;3.22;;;5.00;99.90;;;;;;4984837;28;20019;-73
2022/02/02 16:14:34;;;;;;;12.15;3.30;;;5.00;99.90;;;;;;4985666;28;20538;-73
2022/02/02 16:19:36;;;;;;;10.75;3.53;;;4.90;99.90;;;;;;4985588;28;20027;-73
2022/02/02 16:25:09;;;;;;;9.05;2.90;;;4.80;99.90;;;;;;4987418;28;20057;-73
2022/02/02 16:33:37;;;;;;;9.93;3.08;;;4.90;99.90;;;;;;4987323;28;20480;-72
2022/02/02 16:36:06;;;;;;;8.82;3.78;;;4.90;99.90;;;;;;4986337;28;20045;-72
2022/02/02 16:38:34;;;;;;;9.50;3.33;;;4.90;99.90;;;;;;4985507;28;20030;-73
2022/02/02 16:41:04;;;;;;;7.90;3.33;;;5.10;99.90;;;;;;4992047;28;20026;-71
2022/02/02 16:43:30;;;;;;;7.18;2.60;;;5.00;99.90;;;;;;5004324;28;20022;-71
2022/02/02 16:45:55;;;;;;;6.53;2.75;;;5.00;99.90;;;;;;4998742;28;20025;-73
2022/02/02 16:48:22;;;;;;;8.70;3.35;;;5.00;99.90;;;;;;4986856;28;20022;-72
2022/02/02 16:50:51;;;;;;;8.82;2.88;;;5.00;99.90;;;;;;4984571;28;20026;-72
2022/02/02 17:40:50;;;;;;;9.13;3.00;;;4.80;99.90;;;;;;4982049;28;20512;-75
2022/02/02 18:12:20;;;;;;;8.93;4.03;;;4.50;99.90;;;;;;4991753;28;20526;-75
2022/02/02 18:20:22;;;;;;;11.05;4.13;;;4.40;99.90;;;;;;4991611;28;20484;-74
2022/02/02 18:22:55;;;;;;;8.50;3.50;;;4.40;99.90;;;;;;4990779;28;20472;-77
2022/02/02 18:25:30;;;;;;;10.63;3.30;;;4.50;99.90;;;;;;4974743;28;20069;-75
2022/02/02 18:28:10;;;;;;;13.20;3.67;;;4.60;99.90;;;;;;4974188;28;20029;-75
2022/02/02 18:30:52;;;;;;;10.95;3.88;;;4.50;99.90;;;;;;4991260;28;20076;-75
2022/02/02 18:33:35;;;;;;;9.48;3.78;;;4.60;99.90;;;;;;4991761;28;20352;-75
2022/02/02 19:52:27;;;;;;;9.57;4.18;;;4.10;99.90;;;;;;4989238;28;20033;-77
2022/02/02 20:01:43;;;;;;;10.45;4.25;;;4.20;99.90;;;;;;4995916;28;19906;-75
2022/02/02 20:01:49;;;;;;;12.52;4.55;;;4.20;99.90;;;;;;4992554;28;20030;-76
2022/02/02 20:03:49;;;;;;;13.77;4.57;;;4.30;99.90;;;;;;4990243;28;20126;-74
2022/02/02 20:09:55;;;;;;;8.77;4.22;;;4.20;99.90;;;;;;4990027;28;20019;-74
2022/02/02 20:11:44;;;;;;;9.15;3.95;;;4.20;99.90;;;;;;4978121;28;20033;-74
2022/02/02 20:14:13;;;;;;;10.90;4.72;;;4.20;99.90;;;;;;4989173;28;20019;-74
2022/02/02 20:16:40;;;;;;;11.52;4.57;;;4.10;99.90;;;;;;4971664;28;20131;-74
2022/02/02 20:19:08;;;;;;;9.90;4.03;;;4.10;99.90;;;;;;4988852;28;20030;-74
2022/02/02 20:21:43;;;;;;;11.85;4.50;;;3.90;99.90;;;;;;4972573;28;20460;-74
2022/02/02 20:24:08;;;;;;;12.27;4.93;;;3.90;99.90;;;;;;4990420;28;20031;-74
2022/02/02 20:26:36;;;;;;;12.73;5.22;;;3.80;99.90;;;;;;4989405;28;20041;-74
2022/02/02 20:29:02;;;;;;;15.93;4.85;;;3.80;99.90;;;;;;4969556;28;20088;-75
2022/02/02 20:31:32;;;;;;;13.02;5.60;;;3.80;99.90;;;;;;4971543;28;20495;-75
2022/02/02 20:33:58;;;;;;;10.30;4.50;;;3.80;99.90;;;;;;4988375;28;20077;-75
2022/02/02 20:36:24;;;;;;;10.15;4.63;;;3.70;99.90;;;;;;4972708;28;20389;-75
2022/02/02 20:38:49;;;;;;;14.50;6.35;;;3.70;99.90;;;;;;4940202;28;1025249;-75
2022/02/02 20:41:15;;;;;;;17.52;7.97;;;3.70;99.90;;;;;;4992326;28;20022;-75
2022/02/02 20:43:50;;;;;;;13.90;6.88;;;3.80;99.90;;;;;;4993741;28;20022;-75
2022/02/02 21:05:32;;;;;;;15.55;5.43;;;3.40;99.90;;;;;;5005658;28;20021;-74
2022/02/02 21:10:32;;;;;;;15.18;8.48;;;3.10;99.90;;;;;;4994726;28;20051;-75
2022/02/02 21:15:43;;;;;;;16.08;8.75;;;2.90;99.90;;;;;;4994813;28;20491;-75
2022/02/02 21:18:15;;;;;;;12.98;8.52;;;2.70;99.90;;;;;;4994736;28;20435;-75
2022/02/02 21:20:49;;;;;;;16.23;8.57;;;2.70;99.90;;;;;;4990765;28;20026;-74
2022/02/02 21:26:11;;;;;;;17.60;7.65;;;2.60;99.90;;;;;;5002317;28;20103;-75
2022/02/02 21:28:34;;;;;;;;;;;2.50;99.90;;;;;;4994453;28;20029;-75
2022/02/02 21:31:00;;;;;;;10.70;5.85;;;2.40;99.90;;;;;;4993945;28;20044;-75
2022/02/02 21:33:26;;;;;;;15.65;6.72;;;2.30;99.90;;;;;;4997258;28;20105;-75
2022/02/02 21:35:53;;;;;;;10.82;6.03;;;2.20;99.90;;;;;;4994271;28;20026;-74
2022/02/02 21:38:28;;;;;;;15.82;6.82;;;2.10;99.90;;;;;;4993967;28;20069;-75
2022/02/02 21:40:57;;;;;;;14.43;7.72;;;2.10;99.90;;;;;;4993950;28;20029;-74
2022/02/02 21:43:24;;;;;;;19.60;8.20;;;2.10;99.90;;;;;;4994166;28;20029;-75
2022/02/02 21:45:49;;;;;;;16.92;8.65;;;2.10;99.90;;;;;;4995462;28;20022;-75
2022/02/02 21:48:15;;;;;;;20.50;8.73;;;2.00;99.90;;;;;;4992842;28;20036;-76
2022/02/02 21:50:47;;;;;;;17.65;9.05;;;2.10;99.90;;;;;;4993721;28;20098;-75
2022/02/02 21:53:13;;;;;;;18.60;10.55;;;2.10;99.90;;;;;;4993851;28;20487;-75
2022/02/02 21:55:39;;;;;;;15.43;7.88;;;2.10;99.90;;;;;;4976395;28;20026;-76
2022/02/02 21:58:05;;;;;;;14.02;8.20;;;1.90;99.90;;;;;;4977978;28;20023;-76
2022/02/02 22:00:30;;;;;;;14.23;6.22;;;1.60;99.90;;;;;;4978044;28;20069;-76
2022/02/02 22:02:56;;;;;;;14.35;6.45;;;1.60;99.90;;;;;;5007760;28;20026;-76
2022/02/02 22:05:21;;;;;;;13.35;7.30;;;1.60;99.90;;;;;;4984331;28;20029;-76
2022/02/02 22:07:47;;;;;;;16.23;8.10;;;1.60;99.90;;;;;;4993507;28;20033;-76
2022/02/02 22:10:16;;;;;;;13.32;7.00;;;1.60;99.90;;;;;;4993404;28;20015;-78
2022/02/02 22:12:41;;;;;;;12.77;8.07;;;1.50;99.90;;;;;;4993537;28;20014;-76
2022/02/02 22:15:11;;;;;;;13.75;8.13;;;1.40;99.90;;;;;;4993338;28;20025;-76
2022/02/02 22:17:36;;;;;;;14.45;7.57;;;1.30;99.90;;;;;;4993426;28;20018;-77
2022/02/02 22:20:06;;;;;;;15.77;8.30;;;1.30;99.90;;;;;;4976379;28;20028;-78
2022/02/02 22:22:33;;;;;;;17.42;9.25;;;1.20;99.90;;;;;;4975662;28;20018;-76
2022/02/02 22:24:59;;;;;;;15.43;8.60;;;1.10;99.90;;;;;;5008112;28;20065;-76
2022/02/02 22:27:24;;;;;;;16.42;8.20;;;1.20;99.90;;;;;;4993481;28;20038;-76
2022/02/02 22:29:50;;;;;;;17.55;8.15;;;1.10;99.90;;;;;;4994799;28;20046;-77
2022/02/02 22:32:15;;;;;;;15.45;8.35;;;1.20;99.90;;;;;;4978145;28;20113;-78
2022/02/02 22:34:41;;;;;;;18.48;8.55;;;1.20;99.90;;;;;;4978177;28;20021;-77
2022/02/02 22:37:06;;;;;;;14.05;8.05;;;1.10;99.90;;;;;;4979972;28;20443;-78
2022/02/02 22:39:32;;;;;;;19.23;9.10;;;1.10;99.90;;;;;;4995527;28;20094;-78
2022/02/02 22:41:59;;;;;;;16.48;8.75;;;1.10;99.90;;;;;;4983398;28;20029;-78
2022/02/02 22:44:30;;;;;;;18.92;10.07;;;1.00;99.90;;;;;;4978740;28;20026;-78
2022/02/02 22:47:02;;;;;;;19.30;9.68;;;1.00;99.90;;;;;;4983012;28;20026;-77
2022/02/02 22:49:28;;;;;;;14.88;8.68;;;0.90;99.90;;;;;;4980250;28;20053;-77
2022/02/02 22:51:53;;;;;;;19.05;9.52;;;0.80;99.90;;;;;;4975236;28;20046;-76
2022/02/02 22:54:19;;;;;;;15.98;8.68;;;0.90;99.90;;;;;;4992786;28;20022;-75
2022/02/02 22:56:45;;;;;;;15.95;7.75;;;0.90;99.90;;;;;;4975254;28;20014;-77
2022/02/02 22:59:10;;;;;;;15.60;9.13;;;0.90;99.90;;;;;;4992409;28;20069;-77
2022/02/02 23:01:36;;;;;;;16.92;8.38;;;0.70;99.90;;;;;;4992404;28;20050;-77
2022/02/02 23:04:02;;;;;;;14.15;8.05;;;0.70;99.90;;;;;;4992542;28;20026;-76
2022/02/02 23:06:28;;;;;;;14.90;8.30;;;0.70;99.90;;;;;;4991344;28;20062;-76
2022/02/02 23:08:54;;;;;;;16.20;8.40;;;0.60;99.90;;;;;;4992402;28;20023;-76
2022/02/02 23:11:20;;;;;;;18.55;8.50;;;0.70;99.90;;;;;;4992321;28;20129;-76
2022/02/02 23:13:49;;;;;;;17.80;9.10;;;0.70;99.90;;;;;;4976554;28;20095;-78
2022/02/02 23:16:23;;;;;;;17.60;9.15;;;0.60;99.90;;;;;;4994340;28;20023;-77
2022/02/02 23:18:49;;;;;;;13.80;9.10;;;0.40;99.90;;;;;;4995271;28;20029;-78
2022/02/02 23:21:16;;;;;;;16.38;8.77;;;0.50;99.90;;;;;;4975362;28;20046;-77
2022/02/02 23:23:46;;;;;;;15.40;9.52;;;0.50;99.90;;;;;;4992493;28;20030;-77